Time;durP1;ratioP1;P1;durP2;ratioP2;P2;SDS_P1;SDS_P2;PMS_P1;PMS_P2;Temp;Humidity;BMP_temperature;BMP_pressure;BME280_temperature;BME280_humidity;BME280_pressure;Samples;Min_cycle;Max_cycle;Signal;HPM_P1;HPM_P2
2024/04/19 00:00:53;;;;;;;5.43;4.43;;;7.00;99.90;;;;;;5451247;26;19994;-44
2024/04/19 00:03:19;;;;;;;6.90;5.07;;;6.90;99.90;;;;;;5451531;26;20005;-44
2024/04/19 00:05:45;;;;;;;4.95;4.45;;;7.20;99.90;;;;;;5419098;26;19998;-43
2024/04/19 00:08:10;;;;;;;5.28;4.78;;;7.00;99.90;;;;;;5451309;26;20005;-45
2024/04/19 00:10:36;;;;;;;10.90;5.72;;;7.00;99.90;;;;;;5451365;26;20372;-48
2024/04/19 00:13:02;;;;;;;10.75;6.07;;;7.00;99.90;;;;;;5419820;26;20055;-46
2024/04/19 00:15:27;;;;;;;5.80;5.18;;;7.00;99.90;;;;;;5451089;26;20114;-44
2024/04/19 00:17:53;;;;;;;10.40;5.88;;;7.00;99.90;;;;;;5451181;26;19990;-41
2024/04/19 00:20:20;;;;;;;6.57;5.80;;;6.80;99.90;;;;;;5418572;26;19990;-48
2024/04/19 00:22:46;;;;;;;8.80;7.03;;;6.80;99.90;;;;;;5450881;26;20353;-43
2024/04/19 00:25:11;;;;;;;7.13;6.43;;;6.70;99.90;;;;;;5450766;26;19995;-45
2024/04/19 00:27:37;;;;;;;9.45;7.68;;;6.60;99.90;;;;;;5419308;26;20454;-44
2024/04/19 00:30:03;;;;;;;10.30;7.38;;;6.50;99.90;;;;;;5450449;26;20067;-44
2024/04/19 00:32:28;;;;;;;11.98;7.50;;;6.50;99.90;;;;;;5450315;26;19995;-45
2024/04/19 00:34:54;;;;;;;8.07;7.20;;;6.50;99.90;;;;;;5450709;26;20060;-45
2024/04/19 00:37:19;;;;;;;11.30;7.10;;;6.50;99.90;;;;;;5419260;26;20002;-45
2024/04/19 00:39:45;;;;;;;8.20;7.40;;;6.60;99.90;;;;;;5453273;26;20023;-47
2024/04/19 00:42:11;;;;;;;11.38;7.53;;;6.60;99.90;;;;;;5454088;26;20002;-44
2024/04/19 00:44:36;;;;;;;15.35;7.50;;;6.70;99.90;;;;;;5453717;26;20005;-45
2024/04/19 00:47:03;;;;;;;7.78;6.95;;;6.70;99.90;;;;;;5453806;26;20067;-45
2024/04/19 00:49:29;;;;;;;10.38;8.15;;;6.70;99.90;;;;;;5453859;26;20469;-44
2024/04/19 00:51:56;;;;;;;13.57;7.78;;;6.70;99.90;;;;;;5453510;26;19991;-45
2024/04/19 00:54:21;;;;;;;9.00;7.40;;;6.70;99.90;;;;;;5453722;26;20006;-44
2024/04/19 00:56:48;;;;;;;9.65;7.40;;;6.80;99.90;;;;;;5453792;26;19995;-42
2024/04/19 00:59:14;;;;;;;11.82;8.35;;;6.70;99.90;;;;;;5453562;26;20067;-46
2024/04/19 01:01:39;;;;;;;13.38;7.70;;;6.60;99.90;;;;;;5453622;26;20002;-45
2024/04/19 01:04:05;;;;;;;9.80;7.70;;;6.60;99.90;;;;;;5453661;26;20457;-44
2024/04/19 01:06:30;;;;;;;11.25;6.95;;;6.60;99.90;;;;;;5453701;26;20001;-44
2024/04/19 01:08:56;;;;;;;10.65;7.05;;;6.60;99.90;;;;;;5453553;26;19995;-48
2024/04/19 01:11:22;;;;;;;9.27;7.43;;;6.60;99.90;;;;;;5421909;26;20080;-43
2024/04/19 01:13:48;;;;;;;8.23;7.07;;;6.70;99.90;;;;;;5453472;26;20004;-43
2024/04/19 01:16:14;;;;;;;7.50;6.78;;;6.60;99.90;;;;;;5453414;26;19995;-44
2024/04/19 01:18:39;;;;;;;10.65;7.57;;;6.70;99.90;;;;;;5421675;26;20005;-44
2024/04/19 01:21:08;;;;;;;9.43;6.45;;;6.60;99.90;;;;;;5453221;26;19991;-46
2024/04/19 01:23:34;;;;;;;9.65;6.45;;;6.70;99.90;;;;;;5453576;26;20018;-43
2024/04/19 01:26:01;;;;;;;11.48;7.43;;;6.70;99.90;;;;;;5452911;26;20063;-44
2024/04/19 01:28:29;;;;;;;9.65;6.60;;;6.80;99.90;;;;;;5452544;26;19995;-46
2024/04/19 01:30:54;;;;;;;7.30;6.53;;;6.70;99.90;;;;;;5452531;26;19991;-44
2024/04/19 01:33:20;;;;;;;10.65;5.95;;;6.70;99.90;;;;;;5452424;26;20001;-47
2024/04/19 01:35:45;;;;;;;6.65;5.80;;;6.80;99.90;;;;;;5453128;26;20003;-49
2024/04/19 01:38:11;;;;;;;11.57;7.47;;;6.70;99.90;;;;;;5453180;26;20036;-45
2024/04/19 01:40:36;;;;;;;8.95;7.55;;;6.70;99.90;;;;;;5421087;26;20035;-45
2024/04/19 01:43:02;;;;;;;7.05;6.10;;;6.70;99.90;;;;;;5452968;26;20006;-45
2024/04/19 01:45:27;;;;;;;11.20;5.75;;;6.70;99.90;;;;;;5452956;26;19991;-45
2024/04/19 01:47:52;;;;;;;7.20;5.15;;;6.70;99.90;;;;;;5453046;26;19995;-42
2024/04/19 01:50:18;;;;;;;6.43;5.50;;;6.70;99.90;;;;;;5421004;26;20392;-44
2024/04/19 01:52:44;;;;;;;5.75;4.93;;;6.70;99.90;;;;;;5421273;26;20003;-47
2024/04/19 01:55:09;;;;;;;6.28;5.10;;;6.60;99.90;;;;;;5452881;26;20049;-49
2024/04/19 01:57:34;;;;;;;7.28;4.88;;;6.60;99.90;;;;;;5453171;26;19991;-44
2024/04/19 02:00:00;;;;;;;8.25;5.38;;;6.60;99.90;;;;;;5421123;26;20350;-49
2024/04/19 02:02:26;;;;;;;5.20;4.72;;;6.60;99.90;;;;;;5421200;26;20005;-44
2024/04/19 02:04:52;;;;;;;4.90;4.40;;;6.60;99.90;;;;;;5453044;26;20036;-45
2024/04/19 02:07:17;;;;;;;5.50;4.75;;;6.60;99.90;;;;;;5453008;26;19999;-46
2024/04/19 02:09:44;;;;;;;4.93;4.22;;;6.60;99.90;;;;;;5453040;26;20017;-46
2024/04/19 02:12:09;;;;;;;6.40;4.20;;;6.60;99.90;;;;;;5452417;26;19995;-47
2024/04/19 02:14:35;;;;;;;5.55;4.22;;;6.60;99.90;;;;;;5453236;26;20517;-45
2024/04/19 02:17:01;;;;;;;4.72;3.72;;;6.70;99.90;;;;;;5453101;26;20347;-48
2024/04/19 02:19:29;;;;;;;6.45;3.70;;;6.70;99.90;;;;;;5452812;26;20003;-44
2024/04/19 02:21:54;;;;;;;4.13;3.65;;;6.70;99.90;;;;;;5452454;26;19998;-44
2024/04/19 02:24:20;;;;;;;5.40;4.25;;;6.80;99.90;;;;;;5452868;26;20005;-44
2024/04/19 02:26:51;;;;;;;3.70;3.40;;;6.70;99.90;;;;;;5452828;26;20002;-44
2024/04/19 02:32:02;;;;;;;3.80;3.50;;;6.80;99.90;;;;;;5453813;26;20009;-44
2024/04/19 02:34:27;;;;;;;5.53;4.05;;;6.80;99.90;;;;;;5453699;26;19999;-47
2024/04/19 02:36:53;;;;;;;4.15;3.35;;;6.80;99.90;;;;;;5453603;26;20010;-44
2024/04/19 02:39:18;;;;;;;4.90;3.30;;;6.80;99.90;;;;;;5453136;26;20450;-46
2024/04/19 02:41:44;;;;;;;6.57;3.50;;;6.80;99.90;;;;;;5420491;26;20450;-44
2024/04/19 02:44:09;;;;;;;7.15;3.47;;;6.80;99.90;;;;;;5452637;26;19999;-43
2024/04/19 02:46:34;;;;;;;3.70;3.35;;;6.70;99.90;;;;;;5452591;26;20011;-45
2024/04/19 02:49:00;;;;;;;3.80;3.40;;;6.80;99.90;;;;;;5452185;26;20013;-44
2024/04/19 02:51:25;;;;;;;3.80;3.40;;;6.70;99.90;;;;;;5452024;26;20347;-44
2024/04/19 02:53:51;;;;;;;6.55;3.28;;;6.80;99.90;;;;;;5453078;26;20006;-44
2024/04/19 02:56:16;;;;;;;5.28;3.33;;;6.80;99.90;;;;;;5452845;26;20067;-44
2024/04/19 02:58:42;;;;;;;9.65;3.88;;;6.80;99.90;;;;;;5421180;26;19998;-47
2024/04/19 03:01:08;;;;;;;4.45;4.03;;;6.70;99.90;;;;;;5390474;26;19998;-44
2024/04/19 03:03:33;;;;;;;5.05;3.22;;;6.70;99.90;;;;;;5453012;26;19999;-45
2024/04/19 03:05:59;;;;;;;5.82;3.05;;;6.80;99.90;;;;;;5451987;26;20022;-49
2024/04/19 03:08:26;;;;;;;7.03;2.45;;;6.80;99.90;;;;;;5451872;26;20095;-48
2024/04/19 03:10:51;;;;;;;10.80;2.65;;;6.80;99.90;;;;;;5451678;26;19998;-50
2024/04/19 03:13:17;;;;;;;5.75;3.63;;;6.80;99.90;;;;;;5420180;26;20371;-44
2024/04/19 03:15:43;;;;;;;4.97;3.13;;;6.80;99.90;;;;;;5451906;26;19999;-46
2024/04/19 03:18:08;;;;;;;3.88;2.90;;;6.80;99.90;;;;;;5451750;26;20006;-47
2024/04/19 03:20:34;;;;;;;3.85;2.90;;;6.90;99.90;;;;;;5451746;26;20002;-46
2024/04/19 03:22:59;;;;;;;2.92;2.60;;;6.90;99.90;;;;;;5451672;26;19999;-47
2024/04/19 03:25:25;;;;;;;4.18;2.55;;;7.00;99.90;;;;;;5451748;26;20092;-44
2024/04/19 03:27:51;;;;;;;5.32;3.00;;;7.00;99.90;;;;;;5420148;26;20048;-45
2024/04/19 03:30:26;;;;;;;3.08;2.88;;;7.00;99.90;;;;;;5451458;26;20011;-44
2024/04/19 03:32:51;;;;;;;;;;;7.00;99.90;;;;;;5420142;26;20005;-48
2024/04/19 03:35:17;;;;;;;3.08;2.67;;;7.20;99.90;;;;;;5451904;26;19924;-42
2024/04/19 03:37:42;;;;;;;5.53;2.92;;;7.30;99.90;;;;;;5451638;26;20006;-45
2024/04/19 03:40:09;;;;;;;6.18;3.35;;;7.50;99.90;;;;;;5451135;26;19990;-47
2024/04/19 03:42:45;;;;;;;4.85;3.08;;;7.60;99.90;;;;;;5451594;26;20002;-45
2024/04/19 03:47:55;;;;;;;7.05;3.50;;;7.70;99.90;;;;;;5451459;26;20364;-43
2024/04/19 03:50:20;;;;;;;3.78;3.47;;;7.70;99.90;;;;;;5451403;26;19998;-44
2024/04/19 03:52:46;;;;;;;5.53;3.90;;;7.80;99.90;;;;;;5451910;26;19999;-45
2024/04/19 03:55:11;;;;;;;6.93;4.43;;;7.70;99.90;;;;;;5451412;26;20113;-47
2024/04/19 03:57:37;;;;;;;4.40;3.67;;;7.80;99.90;;;;;;5451947;26;20470;-44
2024/04/19 04:00:03;;;;;;;5.65;3.53;;;7.80;99.90;;;;;;5452049;26;20369;-48
2024/04/19 04:02:28;;;;;;;4.38;3.35;;;7.70;99.90;;;;;;5452627;26;20490;-47
2024/04/19 04:04:54;;;;;;;4.13;3.42;;;7.70;99.90;;;;;;5452317;26;20067;-42
2024/04/19 04:07:20;;;;;;;3.95;3.55;;;7.80;99.90;;;;;;5452238;26;20364;-45
2024/04/19 04:09:45;;;;;;;4.40;3.08;;;7.70;99.90;;;;;;5419703;26;20066;-42
2024/04/19 04:12:11;;;;;;;3.92;3.55;;;7.70;99.90;;;;;;5450765;26;19999;-44
2024/04/19 04:14:36;;;;;;;6.07;3.30;;;7.70;99.90;;;;;;5450189;26;20006;-41
2024/04/19 04:17:02;;;;;;;3.88;3.58;;;7.70;99.90;;;;;;5451739;26;19998;-44
2024/04/19 04:19:28;;;;;;;5.85;3.10;;;7.70;99.90;;;;;;5451552;26;20006;-44
2024/04/19 04:21:53;;;;;;;3.60;3.08;;;7.70;99.90;;;;;;5450756;26;20067;-45
2024/04/19 04:24:19;;;;;;;3.60;3.35;;;7.70;99.90;;;;;;5418958;26;20461;-44
2024/04/19 04:26:44;;;;;;;3.47;3.17;;;7.70;99.90;;;;;;5451103;26;20006;-40
2024/04/19 04:29:10;;;;;;;5.82;3.42;;;7.70;99.90;;;;;;5450886;26;19995;-44
2024/04/19 04:31:37;;;;;;;6.93;3.70;;;7.70;99.90;;;;;;5450475;26;20006;-49
2024/04/19 04:34:02;;;;;;;3.47;3.17;;;7.70;99.90;;;;;;5449950;26;20007;-44
2024/04/19 04:36:28;;;;;;;4.53;3.35;;;7.70;99.90;;;;;;5418802;26;19995;-46
2024/04/19 04:38:53;;;;;;;3.30;3.10;;;7.70;99.90;;;;;;5450225;26;20002;-45
2024/04/19 04:41:19;;;;;;;3.50;3.30;;;7.60;99.90;;;;;;5450066;26;20350;-47
2024/04/19 04:43:44;;;;;;;4.40;4.00;;;7.60;99.90;;;;;;5450570;26;20009;-44
2024/04/19 04:46:10;;;;;;;5.05;4.03;;;7.60;99.90;;;;;;5450578;26;19995;-49
2024/04/19 04:48:35;;;;;;;4.68;4.15;;;7.50;99.90;;;;;;5450815;26;19994;-44
2024/04/19 04:51:01;;;;;;;5.25;4.40;;;7.50;99.90;;;;;;5450059;26;20446;-43
2024/04/19 04:53:27;;;;;;;8.02;5.35;;;7.40;99.90;;;;;;5450320;26;20005;-46
2024/04/19 04:55:53;;;;;;;7.57;5.30;;;7.30;99.90;;;;;;5450438;26;20018;-43
2024/04/19 04:58:18;;;;;;;7.25;5.00;;;7.30;99.90;;;;;;5449959;26;19995;-48
2024/04/19 05:00:46;;;;;;;12.35;5.43;;;7.20;99.90;;;;;;5449720;26;20117;-43
2024/04/19 05:03:12;;;;;;;5.00;4.60;;;7.10;99.90;;;;;;5450126;26;20510;-45
2024/04/19 05:05:38;;;;;;;6.63;4.93;;;7.10;99.90;;;;;;5470507;21;20010;-51
2024/04/19 05:08:04;;;;;;;6.30;5.53;;;7.00;99.90;;;;;;5450406;26;19990;-50
2024/04/19 05:10:30;;;;;;;5.70;4.78;;;7.00;99.90;;;;;;5418087;26;19991;-49
2024/04/19 05:12:59;;;;;;;5.35;4.85;;;6.90;99.90;;;;;;5450053;26;20002;-52
2024/04/19 05:15:25;;;;;;;6.40;5.80;;;6.80;99.90;;;;;;5401119;26;20394;-50
2024/04/19 05:17:50;;;;;;;4.88;4.47;;;6.80;99.90;;;;;;5413865;26;19995;-53
2024/04/19 05:20:16;;;;;;;3.85;3.55;;;6.70;99.90;;;;;;5382120;26;20035;-53
2024/04/19 05:22:41;;;;;;;3.15;2.85;;;6.70;99.90;;;;;;5414002;26;20421;-52
2024/04/19 05:25:07;;;;;;;2.10;2.00;;;6.60;99.90;;;;;;5384486;26;19995;-52
2024/04/19 05:27:33;;;;;;;2.72;1.80;;;6.50;99.90;;;;;;5417487;26;19999;-51
2024/04/19 05:29:59;;;;;;;2.78;1.95;;;6.30;99.90;;;;;;5416821;26;20010;-50
2024/04/19 05:32:24;;;;;;;2.20;2.10;;;6.30;99.90;;;;;;5385412;26;19995;-52
2024/04/19 05:34:50;;;;;;;2.60;2.35;;;6.30;99.90;;;;;;5417423;26;20006;-52
2024/04/19 05:37:16;;;;;;;2.90;2.60;;;6.30;99.90;;;;;;5417423;26;20001;-49
2024/04/19 05:39:41;;;;;;;3.47;3.17;;;6.30;99.90;;;;;;5417388;26;20447;-50
2024/04/19 05:42:08;;;;;;;3.60;3.38;;;6.30;99.90;;;;;;5416816;26;20415;-51
2024/04/19 05:44:33;;;;;;;6.97;3.38;;;6.20;99.90;;;;;;5385522;26;20010;-52
2024/04/19 05:46:59;;;;;;;4.03;3.72;;;6.30;99.90;;;;;;5385721;26;20339;-50
2024/04/19 05:49:24;;;;;;;5.10;4.15;;;6.30;99.90;;;;;;5385712;26;19995;-53
2024/04/19 05:51:50;;;;;;;4.72;4.32;;;6.30;99.90;;;;;;5385429;26;20006;-50
2024/04/19 05:54:15;;;;;;;4.25;3.95;;;6.30;99.90;;;;;;5416971;26;20024;-52
2024/04/19 05:56:41;;;;;;;4.80;4.40;;;6.30;99.90;;;;;;5416772;26;20000;-52
2024/04/19 05:59:06;;;;;;;6.05;5.43;;;6.30;99.90;;;;;;5416730;26;20087;-52
2024/04/19 06:01:32;;;;;;;5.60;5.05;;;6.30;99.90;;;;;;5416487;26;20486;-52
2024/04/19 06:03:58;;;;;;;6.07;4.68;;;6.30;99.90;;;;;;5416908;26;20000;-52
2024/04/19 06:06:23;;;;;;;7.82;5.43;;;6.30;99.90;;;;;;5416995;26;19996;-55
2024/04/19 06:08:49;;;;;;;5.95;5.38;;;6.30;99.90;;;;;;5385492;26;19995;-52
2024/04/19 06:11:15;;;;;;;5.95;5.45;;;6.40;99.90;;;;;;5416565;26;20024;-55
2024/04/19 06:13:41;;;;;;;7.25;5.72;;;6.40;99.90;;;;;;5385652;26;20073;-50
2024/04/19 06:16:09;;;;;;;7.13;6.43;;;6.40;99.90;;;;;;5416811;26;19999;-54
2024/04/19 06:18:34;;;;;;;7.57;6.07;;;6.30;99.90;;;;;;5385406;26;19999;-55
2024/04/19 06:21:00;;;;;;;7.13;6.43;;;6.30;99.90;;;;;;5385075;26;20466;-53
2024/04/19 06:23:25;;;;;;;7.63;6.85;;;6.30;99.90;;;;;;5416515;26;19996;-54
2024/04/19 06:25:52;;;;;;;8.02;6.55;;;6.30;99.90;;;;;;5416379;26;19996;-52
2024/04/19 06:28:17;;;;;;;8.50;6.53;;;6.40;99.90;;;;;;5416366;26;20013;-51
2024/04/19 06:30:43;;;;;;;8.82;7.07;;;6.40;99.90;;;;;;5416347;26;19995;-50
2024/04/19 06:33:08;;;;;;;10.73;8.40;;;6.50;99.90;;;;;;5416041;26;20069;-52
2024/04/19 06:35:35;;;;;;;11.45;8.00;;;6.40;99.90;;;;;;5415650;26;19996;-53
2024/04/19 06:38:01;;;;;;;9.43;8.27;;;6.40;99.90;;;;;;5415998;26;20011;-50
2024/04/19 06:40:26;;;;;;;8.23;7.22;;;6.30;99.90;;;;;;5416451;26;20072;-51
2024/04/19 06:42:52;;;;;;;7.90;7.03;;;6.30;99.90;;;;;;5416527;26;20037;-50
2024/04/19 06:45:17;;;;;;;7.00;6.30;;;6.30;99.90;;;;;;5416182;26;20021;-52
2024/04/19 06:47:43;;;;;;;5.78;5.28;;;6.30;99.90;;;;;;5416477;26;19995;-52
2024/04/19 06:50:09;;;;;;;5.53;4.68;;;6.30;99.90;;;;;;5415841;26;19995;-56
2024/04/19 06:52:34;;;;;;;3.95;3.40;;;6.30;99.90;;;;;;5416561;26;20007;-52
2024/04/19 06:55:00;;;;;;;4.15;3.85;;;6.30;99.90;;;;;;5416154;26;20000;-51
2024/04/19 06:57:25;;;;;;;4.72;3.33;;;6.30;99.90;;;;;;5416091;26;20007;-50
2024/04/19 06:59:51;;;;;;;3.35;3.15;;;6.30;99.90;;;;;;5384309;26;20019;-55
2024/04/19 07:02:16;;;;;;;3.28;2.97;;;6.30;99.90;;;;;;5384898;26;20000;-48
2024/04/19 07:04:42;;;;;;;3.80;3.50;;;6.30;99.90;;;;;;5415832;26;20003;-50
2024/04/19 07:07:07;;;;;;;5.25;3.67;;;6.30;99.90;;;;;;5416596;26;20003;-54
2024/04/19 07:09:33;;;;;;;6.50;3.90;;;6.30;99.90;;;;;;5416051;26;19999;-52
2024/04/19 07:11:58;;;;;;;4.65;3.97;;;6.30;99.90;;;;;;5415641;26;20423;-51
2024/04/19 07:14:24;;;;;;;4.05;3.67;;;6.30;99.90;;;;;;5415899;26;19995;-52
2024/04/19 07:16:49;;;;;;;8.77;3.60;;;6.30;99.90;;;;;;5415816;26;20068;-56
2024/04/19 07:19:15;;;;;;;4.57;3.92;;;6.30;99.90;;;;;;5384533;26;20474;-51
2024/04/19 07:21:41;;;;;;;4.45;4.05;;;6.30;99.90;;;;;;5415498;26;20123;-50
2024/04/19 07:24:06;;;;;;;4.40;4.10;;;6.30;99.90;;;;;;5415967;26;20085;-55
2024/04/19 07:26:37;;;;;;;4.45;4.05;;;6.40;99.90;;;;;;5415815;26;20010;-53
2024/04/19 07:29:04;;;;;;;4.80;4.40;;;6.40;99.90;;;;;;5415706;26;20069;-51
2024/04/19 07:31:29;;;;;;;5.57;4.95;;;6.40;99.90;;;;;;5415467;26;20003;-53
2024/04/19 07:33:55;;;;;;;6.57;6.07;;;6.40;99.90;;;;;;5384163;26;19999;-51
2024/04/19 07:36:20;;;;;;;6.70;6.00;;;6.40;99.90;;;;;;5415485;26;19999;-51
2024/04/19 07:38:46;;;;;;;7.30;6.60;;;6.40;99.90;;;;;;5415364;26;19995;-53
2024/04/19 07:41:11;;;;;;;7.93;6.80;;;6.50;99.90;;;;;;5384114;26;20336;-51
2024/04/19 07:43:38;;;;;;;7.30;6.53;;;6.40;99.90;;;;;;5415401;26;19999;-52
2024/04/19 07:46:03;;;;;;;7.28;6.57;;;6.50;99.90;;;;;;5415495;26;20535;-53
2024/04/19 07:48:29;;;;;;;7.07;6.18;;;6.50;99.90;;;;;;5383536;26;20008;-50
2024/04/19 07:50:54;;;;;;;10.65;6.43;;;6.50;99.90;;;;;;5383480;26;20011;-54
2024/04/19 07:53:22;;;;;;;8.27;7.18;;;6.50;99.90;;;;;;5415328;26;19996;-50
2024/04/19 07:55:47;;;;;;;7.68;6.40;;;6.50;99.90;;;;;;5383753;26;19999;-53
2024/04/19 07:58:13;;;;;;;7.10;6.47;;;6.50;99.90;;;;;;5415207;26;20010;-53
2024/04/19 08:00:39;;;;;;;7.82;7.10;;;6.50;99.90;;;;;;5414975;26;20019;-51
2024/04/19 08:03:05;;;;;;;10.02;6.03;;;6.50;99.90;;;;;;5415148;26;20256;-53
2024/04/19 08:05:30;;;;;;;7.03;6.32;;;6.50;99.90;;;;;;5382670;26;20334;-54
2024/04/19 08:07:57;;;;;;;8.25;7.18;;;6.60;99.90;;;;;;5413817;26;20077;-54
2024/04/19 08:10:24;;;;;;;7.05;6.07;;;6.60;99.90;;;;;;5401817;26;20038;-53
2024/04/19 08:12:50;;;;;;;8.18;6.20;;;6.60;99.90;;;;;;5411125;26;20008;-55
2024/04/19 08:15:16;;;;;;;6.15;5.55;;;6.70;99.90;;;;;;5412626;26;20072;-53
2024/04/19 08:17:42;;;;;;;7.00;5.75;;;6.70;99.90;;;;;;5383714;26;19999;-54
2024/04/19 08:20:08;;;;;;;6.28;5.63;;;6.80;99.90;;;;;;5414400;26;20008;-51
2024/04/19 08:22:34;;;;;;;6.82;5.53;;;6.80;99.90;;;;;;5414734;26;20011;-54
2024/04/19 08:24:59;;;;;;;6.30;5.25;;;6.80;99.90;;;;;;5383237;26;19999;-55
2024/04/19 08:27:25;;;;;;;6.15;5.60;;;6.80;99.90;;;;;;5383051;26;19996;-54
2024/04/19 08:29:51;;;;;;;6.25;5.63;;;6.80;99.90;;;;;;5413853;26;19996;-50
2024/04/19 08:32:16;;;;;;;6.20;5.60;;;6.80;99.90;;;;;;5414679;26;20010;-53
2024/04/19 08:34:42;;;;;;;6.13;5.53;;;6.80;99.90;;;;;;5414405;26;20115;-58
2024/04/19 08:37:08;;;;;;;6.30;5.18;;;6.80;99.90;;;;;;5414646;26;20458;-53
2024/04/19 08:39:33;;;;;;;7.65;5.22;;;6.90;99.90;;;;;;5414058;26;20015;-54
2024/04/19 08:42:04;;;;;;;6.40;5.28;;;6.90;99.90;;;;;;5413674;26;20023;-52
2024/04/19 08:44:30;;;;;;;6.88;4.97;;;6.90;99.90;;;;;;5413450;26;20344;-50
2024/04/19 08:46:57;;;;;;;5.05;4.65;;;6.90;99.90;;;;;;5413769;26;20018;-51
2024/04/19 08:49:24;;;;;;;5.53;5.03;;;6.90;99.90;;;;;;5382419;26;19996;-54
2024/04/19 08:51:51;;;;;;;6.32;4.30;;;7.00;99.90;;;;;;5414241;26;19999;-57
2024/04/19 08:54:17;;;;;;;5.70;4.35;;;7.00;99.90;;;;;;5413857;26;19995;-50
2024/04/19 08:56:45;;;;;;;4.28;3.92;;;7.00;99.90;;;;;;5394629;26;20000;-54
2024/04/19 08:59:10;;;;;;;4.05;3.65;;;7.10;99.90;;;;;;5415102;26;20010;-54
2024/04/19 09:01:36;;;;;;;4.28;3.88;;;7.10;99.90;;;;;;5417238;26;19999;-55
2024/04/19 09:04:02;;;;;;;3.78;3.47;;;7.10;99.90;;;;;;5417048;26;20015;-53
2024/04/19 09:06:28;;;;;;;4.75;3.47;;;7.20;99.90;;;;;;5417330;26;20014;-52
2024/04/19 09:08:54;;;;;;;4.25;3.85;;;7.20;99.90;;;;;;5385486;26;20053;-52
2024/04/19 09:11:21;;;;;;;5.03;3.80;;;7.30;99.90;;;;;;5416710;26;20384;-51
2024/04/19 09:13:47;;;;;;;4.40;3.65;;;7.30;99.90;;;;;;5417009;26;20457;-56
2024/04/19 09:16:13;;;;;;;4.18;3.63;;;7.30;99.90;;;;;;5385847;26;20000;-55
2024/04/19 09:18:38;;;;;;;4.43;4.07;;;7.30;99.90;;;;;;5417346;26;20019;-55
2024/04/19 09:21:04;;;;;;;4.22;3.92;;;7.30;99.90;;;;;;5416933;26;20010;-55
2024/04/19 09:23:30;;;;;;;4.25;3.90;;;7.30;99.90;;;;;;5416976;26;19999;-51
2024/04/19 09:25:57;;;;;;;4.30;4.00;;;7.30;99.90;;;;;;5385172;26;20010;-55
2024/04/19 09:28:23;;;;;;;4.45;4.05;;;7.30;99.90;;;;;;5417141;26;20010;-54
2024/04/19 09:30:52;;;;;;;5.00;4.60;;;7.40;99.90;;;;;;5385433;26;19999;-53
2024/04/19 09:33:18;;;;;;;9.82;4.40;;;7.40;99.90;;;;;;5385269;26;20447;-53
2024/04/19 09:35:44;;;;;;;4.20;3.90;;;7.40;99.90;;;;;;5416470;26;20003;-52
2024/04/19 09:38:10;;;;;;;4.88;3.50;;;7.40;99.90;;;;;;5416591;26;20011;-51
2024/04/19 09:40:36;;;;;;;4.65;4.25;;;7.40;99.90;;;;;;5416888;26;20107;-54
2024/04/19 09:43:06;;;;;;;3.63;3.42;;;7.40;99.90;;;;;;5416879;26;20069;-55
2024/04/19 09:45:43;;;;;;;4.10;3.78;;;7.40;99.90;;;;;;5416642;26;19999;-53
2024/04/19 09:48:10;;;;;;;3.97;3.67;;;7.40;99.90;;;;;;5417260;26;20073;-51
2024/04/19 09:50:38;;;;;;;4.05;3.50;;;7.50;99.90;;;;;;5416586;26;20445;-52
2024/04/19 09:53:09;;;;;;;4.15;3.78;;;7.50;99.90;;;;;;5416428;26;20003;-51
2024/04/19 09:55:45;;;;;;;7.10;4.43;;;7.50;99.90;;;;;;5415226;26;19999;-54
2024/04/19 09:58:12;;;;;;;4.32;3.92;;;7.50;99.90;;;;;;5385075;26;20003;-52
2024/04/19 10:00:37;;;;;;;4.13;3.72;;;7.50;99.90;;;;;;5384723;26;20067;-51
2024/04/19 10:03:08;;;;;;;5.35;3.78;;;7.50;99.90;;;;;;5416380;26;20008;-53
2024/04/19 10:05:34;;;;;;;4.07;3.78;;;7.50;99.90;;;;;;5416381;26;20039;-52
2024/04/19 10:08:01;;;;;;;4.82;3.88;;;7.50;99.90;;;;;;5416708;26;20014;-48
2024/04/19 10:10:26;;;;;;;4.45;4.07;;;7.50;99.90;;;;;;5416348;26;20000;-51
2024/04/19 10:12:52;;;;;;;3.72;3.47;;;7.50;99.90;;;;;;5416702;26;20027;-51
2024/04/19 10:15:21;;;;;;;18.55;13.63;;;7.50;99.90;;;;;;5417808;26;20000;-50
2024/04/19 10:17:47;;;;;;;14.38;9.43;;;7.50;99.90;;;;;;5416728;26;20101;-55
2024/04/19 10:20:13;;;;;;;7.70;5.85;;;7.50;99.90;;;;;;5384458;26;20450;-51
2024/04/19 10:22:42;;;;;;;4.00;3.70;;;7.60;99.90;;;;;;5385421;26;20000;-57
2024/04/19 10:25:07;;;;;;;3.75;3.45;;;7.60;99.90;;;;;;5416051;26;19999;-53
2024/04/19 10:27:33;;;;;;;4.35;3.83;;;7.70;99.90;;;;;;5416720;26;20010;-57
2024/04/19 10:29:59;;;;;;;4.13;3.72;;;7.80;99.90;;;;;;5416339;26;20500;-53
2024/04/19 10:32:25;;;;;;;4.45;4.15;;;7.80;99.90;;;;;;5416351;26;20003;-53
2024/04/19 10:34:53;;;;;;;3.13;2.90;;;7.80;99.90;;;;;;5417618;26;19995;-51
2024/04/19 10:37:20;;;;;;;3.10;2.90;;;7.80;99.90;;;;;;5417109;26;20003;-56
2024/04/19 10:39:46;;;;;;;3.10;2.90;;;7.90;99.90;;;;;;5416470;26;19995;-54
2024/04/19 10:42:11;;;;;;;3.30;3.08;;;7.90;99.90;;;;;;5415326;26;20327;-57
2024/04/19 10:44:41;;;;;;;4.10;3.28;;;8.00;99.90;;;;;;5393902;26;20011;-53
2024/04/19 10:47:06;;;;;;;3.03;2.83;;;8.00;99.90;;;;;;5433065;26;20011;-51
2024/04/19 10:49:32;;;;;;;2.75;2.47;;;8.10;99.90;;;;;;5432524;26;20080;-52
2024/04/19 10:51:59;;;;;;;2.25;2.15;;;8.10;99.90;;;;;;5403173;26;19999;-53
2024/04/19 10:54:25;;;;;;;3.08;2.72;;;8.10;99.90;;;;;;5432625;26;20484;-56
2024/04/19 10:56:51;;;;;;;3.05;2.72;;;8.20;99.90;;;;;;5433076;26;19999;-55
2024/04/19 10:59:17;;;;;;;3.28;2.60;;;8.20;99.90;;;;;;5430318;26;20032;-54
2024/04/19 11:01:44;;;;;;;2.70;2.60;;;8.20;99.90;;;;;;5415405;26;20443;-53
2024/04/19 11:04:11;;;;;;;3.25;2.97;;;8.30;99.90;;;;;;5415819;26;20010;-56
2024/04/19 11:06:37;;;;;;;13.57;9.77;;;8.30;99.90;;;;;;5490903;21;19998;-47
2024/04/19 11:09:03;;;;;;;13.40;9.02;;;8.40;99.90;;;;;;5491746;26;20002;-49
2024/04/19 11:11:37;;;;;;;2.42;2.30;;;8.40;99.90;;;;;;5494842;26;20001;-50
2024/04/19 11:14:06;;;;;;;2.50;2.40;;;8.40;99.90;;;;;;5495513;26;19994;-53
2024/04/19 11:16:31;;;;;;;3.05;2.75;;;8.50;99.90;;;;;;5438461;26;19995;-50
2024/04/19 11:18:57;;;;;;;2.88;2.67;;;8.40;99.90;;;;;;5427120;26;20001;-53
2024/04/19 11:21:22;;;;;;;2.85;2.65;;;8.40;99.90;;;;;;5459345;26;20418;-55
2024/04/19 11:23:48;;;;;;;2.83;2.63;;;8.40;99.90;;;;;;5458611;26;20001;-52
2024/04/19 11:26:17;;;;;;;3.45;2.95;;;8.50;99.90;;;;;;5459885;26;20002;-51
2024/04/19 11:28:50;;;;;;;2.58;2.40;;;8.50;99.90;;;;;;5459046;26;19999;-54
2024/04/19 11:31:16;;;;;;;2.70;2.50;;;8.50;99.90;;;;;;5439891;26;20092;-51
2024/04/19 11:33:42;;;;;;;2.75;2.55;;;8.50;99.90;;;;;;5458181;26;19997;-52
2024/04/19 11:36:14;;;;;;;2.72;2.50;;;8.50;99.90;;;;;;5458402;26;20005;-53
2024/04/19 11:38:40;;;;;;;3.25;3.00;;;8.50;99.90;;;;;;5459829;26;19994;-55
2024/04/19 11:41:09;;;;;;;3.00;2.78;;;8.60;99.90;;;;;;5457682;26;20009;-54
2024/04/19 11:43:34;;;;;;;5.28;2.75;;;8.60;99.90;;;;;;5459904;26;19995;-52
2024/04/19 11:46:00;;;;;;;2.67;2.47;;;8.70;99.90;;;;;;5459826;26;20006;-51
2024/04/19 11:48:27;;;;;;;2.33;2.13;;;8.70;99.90;;;;;;5456629;26;19995;-55
2024/04/19 11:50:54;;;;;;;4.30;3.00;;;8.70;99.90;;;;;;5458911;26;20046;-49
2024/04/19 11:53:19;;;;;;;2.50;2.30;;;8.70;99.90;;;;;;5457496;26;20039;-53
2024/04/19 11:55:50;;;;;;;2.65;2.40;;;8.80;99.90;;;;;;5459294;26;19995;-54
2024/04/19 11:58:15;;;;;;;4.15;3.58;;;8.80;99.90;;;;;;5458133;26;20010;-55
2024/04/19 12:00:42;;;;;;;2.38;2.22;;;8.80;99.90;;;;;;5458138;26;19999;-54
2024/04/19 12:03:07;;;;;;;2.97;2.70;;;8.80;99.90;;;;;;5458964;26;20027;-54
2024/04/19 12:05:33;;;;;;;3.22;2.60;;;8.70;99.90;;;;;;5460224;26;19990;-52
2024/04/19 12:08:00;;;;;;;3.10;2.78;;;8.80;99.90;;;;;;5460617;26;20006;-55
2024/04/19 12:10:26;;;;;;;2.25;2.10;;;8.70;99.90;;;;;;5460602;26;19994;-52
2024/04/19 12:12:51;;;;;;;3.15;2.47;;;8.80;99.90;;;;;;5460729;26;20040;-53
2024/04/19 12:15:17;;;;;;;2.60;2.40;;;8.70;99.90;;;;;;5456899;26;20069;-51
2024/04/19 12:17:42;;;;;;;2.58;2.38;;;8.70;99.90;;;;;;5456866;26;20040;-55
2024/04/19 12:20:09;;;;;;;4.90;2.65;;;8.80;99.90;;;;;;5458487;26;20175;-51
2024/04/19 12:22:35;;;;;;;2.67;2.50;;;8.80;99.90;;;;;;5457287;26;20011;-53
2024/04/19 12:25:00;;;;;;;2.78;2.58;;;8.90;99.90;;;;;;5458463;26;20489;-49
2024/04/19 12:27:26;;;;;;;3.03;2.70;;;9.00;99.90;;;;;;5463777;26;20044;-50
2024/04/19 12:29:51;;;;;;;3.42;3.13;;;9.00;99.90;;;;;;5480597;26;19998;-54
2024/04/19 12:32:17;;;;;;;3.00;2.80;;;9.00;99.90;;;;;;5459371;26;20349;-49
2024/04/19 12:34:43;;;;;;;3.05;2.83;;;9.00;99.90;;;;;;5479334;26;20013;-53
2024/04/19 12:37:09;;;;;;;3.20;2.85;;;9.00;99.90;;;;;;5423484;26;19998;-52
2024/04/19 12:39:35;;;;;;;3.00;2.80;;;9.00;99.90;;;;;;5489062;26;20064;-51
2024/04/19 12:42:05;;;;;;;3.47;3.10;;;9.10;99.90;;;;;;5470757;26;20003;-52
2024/04/19 12:44:31;;;;;;;2.58;2.38;;;9.10;99.90;;;;;;5466758;26;20423;-49
2024/04/19 12:46:57;;;;;;;2.80;2.60;;;9.20;99.90;;;;;;5476002;26;20010;-50
2024/04/19 12:49:23;;;;;;;5.28;2.58;;;9.20;99.90;;;;;;5477888;26;20017;-53
2024/04/19 12:51:49;;;;;;;2.47;2.35;;;9.20;99.90;;;;;;5475323;26;20045;-51
2024/04/19 12:54:17;;;;;;;2.08;1.98;;;9.20;99.90;;;;;;5449063;26;20482;-54